createdAt,value
2019-02-26T00:01:34.792Z,102821.14
2019-02-26T00:04:04.345Z,102818.95
2019-02-26T00:06:33.918Z,102810.70
2019-02-26T00:09:05.098Z,102814.59
2019-02-26T00:11:36.206Z,102808.09
2019-02-26T00:14:06.173Z,102812.84
2019-02-26T00:16:39.767Z,102815.88
2019-02-26T00:19:07.389Z,102823.64
2019-02-26T00:21:38.494Z,102819.26
2019-02-26T00:24:09.895Z,102822.70
2019-02-26T00:26:40.833Z,102819.23
2019-02-26T00:29:10.641Z,102824.85
2019-02-26T00:31:40.211Z,102820.11
2019-02-26T00:34:10.686Z,102818.39
2019-02-26T00:36:42.322Z,102822.68
2019-02-26T00:39:12.023Z,102818.77
2019-02-26T00:41:42.406Z,102820.04
2019-02-26T00:44:12.175Z,102809.22
2019-02-26T00:46:42.832Z,102808.77
2019-02-26T00:49:12.411Z,102802.28
2019-02-26T00:51:45.997Z,102795.77
2019-02-26T00:54:14.087Z,102786.64
2019-02-26T00:56:44.258Z,102791.81
2019-02-26T00:59:13.778Z,102806.05
2019-02-26T01:01:46.010Z,102808.99
2019-02-26T01:04:14.597Z,102798.95
2019-02-26T01:06:44.323Z,102797.18
2019-02-26T01:09:14.423Z,102797.09
2019-02-26T01:11:49.858Z,102790.13
2019-02-26T01:14:20.328Z,102793.59
2019-02-26T01:16:51.653Z,102795.34
2019-02-26T01:19:21.235Z,102797.52
2019-02-26T01:21:51.178Z,102796.22
2019-02-26T01:24:21.430Z,102793.23
2019-02-26T01:26:54.062Z,102793.30
2019-02-26T01:29:26.017Z,102790.67
2019-02-26T01:31:55.199Z,102787.59
2019-02-26T01:34:24.785Z,102781.56
2019-02-26T01:36:54.451Z,102774.66
2019-02-26T01:39:24.315Z,102765.55
2019-02-26T01:41:56.370Z,102761.61
2019-02-26T01:44:28.098Z,102756.84
2019-02-26T01:46:58.285Z,102752.98
2019-02-26T01:49:30.254Z,102743.48
2019-02-26T01:52:00.369Z,102742.22
2019-02-26T01:54:31.300Z,102739.71
2019-02-26T01:57:01.741Z,102741.48
2019-02-26T01:59:31.732Z,102741.50
2019-02-26T02:02:02.689Z,102744.58
2019-02-26T02:04:34.113Z,102742.84
2019-02-26T02:07:05.835Z,102735.97
2019-02-26T02:09:34.820Z,102736.88
2019-02-26T02:12:06.547Z,102740.74
2019-02-26T02:14:35.667Z,102737.70
2019-02-26T02:17:06.125Z,102732.94
2019-02-26T02:19:36.991Z,102730.80
2019-02-26T02:22:06.540Z,102735.54
2019-02-26T02:24:39.003Z,102731.63
2019-02-26T02:27:07.606Z,102734.64
2019-02-26T02:29:37.466Z,102733.77
2019-02-26T02:32:07.726Z,102734.60
2019-02-26T02:34:40.021Z,102729.34
2019-02-26T02:37:08.645Z,102719.33
2019-02-26T02:39:38.290Z,102721.05
2019-02-26T02:42:08.388Z,102721.87
2019-02-26T02:44:41.295Z,102707.16
2019-02-26T02:47:11.299Z,102708.03
2019-02-26T02:49:44.255Z,102697.25
2019-02-26T02:52:13.369Z,102697.19
2019-02-26T02:54:44.208Z,102696.66
2019-02-26T02:57:14.415Z,102692.72
2019-02-26T02:59:44.517Z,102687.03
2019-02-26T03:02:15.117Z,102679.71
2019-02-26T03:04:45.439Z,102666.75
2019-02-26T03:07:17.727Z,102665.04
2019-02-26T03:09:46.605Z,102661.09
2019-02-26T03:12:16.373Z,102659.80
2019-02-26T03:14:46.329Z,102664.95
2019-02-26T03:17:18.149Z,102671.82
2019-02-26T03:19:47.404Z,102669.53
2019-02-26T03:22:18.895Z,102675.09
2019-02-26T03:24:51.269Z,102672.41
2019-02-26T03:27:20.091Z,102687.07
2019-02-26T03:29:50.423Z,102685.39
2019-02-26T03:32:20.965Z,102690.64
2019-02-26T03:34:50.785Z,102688.47
2019-02-26T03:37:20.468Z,102690.15
2019-02-26T03:39:54.299Z,102692.28
2019-02-26T03:42:21.841Z,102691.34
2019-02-26T03:44:51.747Z,102704.70
2019-02-26T03:47:21.821Z,102697.36
2019-02-26T03:49:51.609Z,102699.56
2019-02-26T03:52:21.490Z,102704.28
2019-02-26T03:54:51.053Z,102708.97
2019-02-26T03:57:22.684Z,102715.41
2019-02-26T03:59:52.262Z,102715.36
2019-02-26T04:02:23.465Z,102717.42
2019-02-26T04:04:54.465Z,102722.52
2019-02-26T04:07:25.997Z,102715.58
2019-02-26T04:09:58.568Z,102715.16
2019-02-26T04:12:28.457Z,102718.63
2019-02-26T04:14:58.093Z,102724.23
2019-02-26T04:17:28.630Z,102725.02
2019-02-26T04:19:59.062Z,102728.89
2019-02-26T04:22:33.143Z,102733.19
2019-02-26T04:25:13.035Z,102729.31
2019-02-26T04:28:14.131Z,102726.77
2019-02-26T04:30:54.524Z,102731.52
2019-02-26T04:33:53.734Z,102735.23
2019-02-26T04:36:39.130Z,102740.22
2019-02-26T04:39:51.964Z,102731.83
2019-02-26T04:42:28.903Z,102738.79
2019-02-26T04:45:09.746Z,102743.45
2019-02-26T04:48:00.737Z,102743.83
2019-02-26T04:50:33.049Z,102748.98
2019-02-26T04:53:04.947Z,102748.53
2019-02-26T04:55:36.090Z,102750.69
2019-02-26T04:58:04.703Z,102751.53
2019-02-26T05:00:38.362Z,102759.23
2019-02-26T05:03:08.600Z,102751.42
2019-02-26T05:05:38.302Z,102747.55
2019-02-26T05:08:10.466Z,102751.42
2019-02-26T05:10:39.301Z,102751.78
2019-02-26T05:13:09.704Z,102762.08
2019-02-26T05:15:39.645Z,102765.03
2019-02-26T05:18:09.211Z,102767.55
2019-02-26T05:20:40.084Z,102769.72
2019-02-26T05:23:10.363Z,102772.66
2019-02-26T05:25:42.369Z,102774.84
2019-02-26T05:28:14.126Z,102778.77
2019-02-26T05:30:45.747Z,102780.47
2019-02-26T05:33:18.365Z,102775.66
2019-02-26T05:35:48.977Z,102777.31
2019-02-26T05:38:20.781Z,102779.02
2019-02-26T05:40:53.113Z,102777.71
2019-02-26T05:43:23.068Z,102772.48
2019-02-26T05:45:58.111Z,102770.69
2019-02-26T05:48:28.178Z,102772.39
2019-02-26T05:51:00.051Z,102770.27
2019-02-26T05:53:29.292Z,102769.45
2019-02-26T05:55:59.103Z,102763.41
2019-02-26T05:58:29.120Z,102759.93
2019-02-26T06:00:59.123Z,102759.30
2019-02-26T06:03:29.343Z,102761.35
2019-02-26T06:06:00.733Z,102757.48
2019-02-26T06:08:33.681Z,102760.17
2019-02-26T06:11:05.228Z,102757.66
2019-02-26T06:13:41.111Z,102764.50
2019-02-26T06:16:07.598Z,102760.92
2019-02-26T06:18:41.166Z,102766.09
2019-02-26T06:21:09.391Z,102765.64
2019-02-26T06:23:39.380Z,102766.56
2019-02-26T06:26:13.990Z,102771.28
2019-02-26T06:28:43.485Z,102772.58
2019-02-26T06:31:14.632Z,102779.53
2019-02-26T06:33:47.208Z,102780.38
2019-02-26T06:36:18.626Z,102776.09
2019-02-26T06:38:49.632Z,102771.33
2019-02-26T06:41:19.345Z,102778.66
2019-02-26T06:43:50.276Z,102768.75
2019-02-26T06:46:20.557Z,102763.64
2019-02-26T06:48:50.401Z,102759.77
2019-02-26T06:51:22.082Z,102757.95
2019-02-26T06:53:52.266Z,102753.66
2019-02-26T06:56:22.849Z,102754.12
2019-02-26T06:58:52.711Z,102750.30
2019-02-26T07:01:22.313Z,102749.91
2019-02-26T07:03:53.899Z,102739.20
2019-02-26T07:06:25.575Z,102738.37
2019-02-26T07:08:59.105Z,102734.14
2019-02-26T07:11:31.479Z,102731.66
2019-02-26T07:14:05.563Z,102726.97
2019-02-26T07:16:39.788Z,102735.24
2019-02-26T07:19:09.191Z,102737.47
2019-02-26T07:21:40.660Z,102741.86
2019-02-26T07:24:11.796Z,102741.50
2019-02-26T07:26:45.873Z,102741.60
2019-02-26T07:29:17.529Z,102746.45
2019-02-26T07:31:49.511Z,102740.04
2019-02-26T07:34:22.701Z,102740.55
2019-02-26T07:36:52.893Z,102742.81
2019-02-26T07:39:22.924Z,102745.45
2019-02-26T07:41:54.397Z,102745.21
2019-02-26T07:44:25.945Z,102745.38
2019-02-26T07:46:55.610Z,102746.43
2019-02-26T07:49:25.449Z,102746.17
2019-02-26T07:51:57.752Z,102739.81
2019-02-26T07:54:28.730Z,102736.06
2019-02-26T07:57:02.614Z,102746.11
2019-02-26T07:59:32.430Z,102743.65
2019-02-26T08:02:03.604Z,102742.05
2019-02-26T08:04:34.504Z,102743.97
2019-02-26T08:07:04.471Z,102751.11
2019-02-26T08:09:34.128Z,102755.14
2019-02-26T08:12:08.980Z,102750.05
2019-02-26T08:14:40.195Z,102755.34
2019-02-26T08:17:09.558Z,102760.17
2019-02-26T08:19:39.812Z,102756.77
2019-02-26T08:22:10.549Z,102757.24
2019-02-26T08:24:40.103Z,102754.23
2019-02-26T08:27:11.614Z,102751.65
2019-02-26T08:29:41.231Z,102746.88
2019-02-26T08:32:13.716Z,102748.17
2019-02-26T08:34:42.296Z,102752.52
2019-02-26T08:37:12.220Z,102742.51
2019-02-26T08:39:42.235Z,102746.83
2019-02-26T08:42:11.886Z,102739.02
2019-02-26T08:44:41.431Z,102736.39
2019-02-26T08:47:13.498Z,102734.67
2019-02-26T08:49:45.653Z,102735.09
2019-02-26T08:52:17.010Z,102732.44
2019-02-26T08:54:46.771Z,102729.38
2019-02-26T08:57:16.648Z,102731.50
2019-02-26T08:59:47.273Z,102727.53
2019-02-26T09:02:17.967Z,102731.38
2019-02-26T09:04:47.918Z,102727.42
2019-02-26T09:07:19.540Z,102722.54
2019-02-26T09:09:50.129Z,102722.86
2019-02-26T09:12:22.393Z,102717.50
2019-02-26T09:14:51.977Z,102712.98
2019-02-26T09:17:26.084Z,102720.16
2019-02-26T09:20:06.428Z,102716.09
2019-02-26T09:22:28.381Z,102716.74
2019-02-26T09:24:59.918Z,102717.82
2019-02-26T09:27:29.588Z,102718.99
2019-02-26T09:30:03.456Z,102712.67
2019-02-26T09:32:35.017Z,102716.38
2019-02-26T09:35:16.911Z,102720.02
2019-02-26T09:37:47.905Z,102716.23
2019-02-26T09:40:23.678Z,102710.38
2019-02-26T09:42:55.161Z,102719.13
2019-02-26T09:45:29.763Z,102717.09
2019-02-26T09:48:01.189Z,102719.60
2019-02-26T09:50:31.670Z,102714.55
2019-02-26T09:53:02.977Z,102713.84
2019-02-26T09:55:32.762Z,102721.42
2019-02-26T09:58:25.351Z,102724.70
2019-02-26T10:00:57.068Z,102725.47
2019-02-26T10:03:29.148Z,102728.13
2019-02-26T10:05:59.415Z,102732.09
2019-02-26T10:08:30.552Z,102735.73
2019-02-26T10:11:02.257Z,102741.56
2019-02-26T10:13:31.876Z,102740.30
2019-02-26T10:16:04.512Z,102743.09
2019-02-26T10:18:33.770Z,102749.68
2019-02-26T10:21:06.772Z,102746.70
2019-02-26T10:23:35.555Z,102749.74
2019-02-26T10:26:07.632Z,102749.07
2019-02-26T10:28:39.426Z,102744.70
2019-02-26T10:31:09.705Z,102740.84
2019-02-26T10:33:41.174Z,102741.27
2019-02-26T10:36:12.949Z,102737.70
2019-02-26T10:38:43.825Z,102727.27
2019-02-26T10:41:13.389Z,102725.81
2019-02-26T10:43:43.031Z,102722.28
2019-02-26T10:46:12.593Z,102720.02
2019-02-26T10:48:48.006Z,102721.52
2019-02-26T10:51:16.945Z,102721.25
2019-02-26T10:53:46.724Z,102714.06
2019-02-26T10:56:16.317Z,102712.23
2019-02-26T10:58:45.872Z,102713.85
2019-02-26T11:01:17.668Z,102713.92
2019-02-26T11:03:49.315Z,102713.25
2019-02-26T11:06:19.203Z,102705.95
2019-02-26T11:08:51.162Z,102708.49
2019-02-26T11:11:20.789Z,102711.41
2019-02-26T11:13:53.644Z,102707.87
2019-02-26T11:16:25.324Z,102711.80
2019-02-26T11:18:54.600Z,102708.13
2019-02-26T11:21:24.156Z,102703.11
2019-02-26T11:23:53.748Z,102707.73
2019-02-26T11:26:23.321Z,102707.12
2019-02-26T11:28:52.923Z,102703.06
2019-02-26T11:31:25.311Z,102694.64
2019-02-26T11:33:56.369Z,102701.13
2019-02-26T11:36:28.089Z,102692.70
2019-02-26T11:38:59.920Z,102689.89
2019-02-26T11:41:31.209Z,102690.27
2019-02-26T11:44:01.265Z,102689.55
2019-02-26T11:46:34.315Z,102682.22
2019-02-26T11:49:02.098Z,102686.91
2019-02-26T11:51:37.175Z,102684.16
2019-02-26T11:54:05.067Z,102679.58
2019-02-26T11:56:34.779Z,102683.28
2019-02-26T11:59:06.729Z,102681.11
2019-02-26T12:01:37.406Z,102677.57
2019-02-26T12:04:11.427Z,102678.59
2019-02-26T12:06:40.538Z,102679.91
2019-02-26T12:09:11.503Z,102669.32
2019-02-26T12:11:42.633Z,102672.00
2019-02-26T12:14:13.769Z,102669.99
2019-02-26T12:16:44.614Z,102669.61
2019-02-26T12:19:14.212Z,102665.48
2019-02-26T12:21:44.847Z,102662.20
2019-02-26T12:24:15.854Z,102656.31
2019-02-26T12:26:47.723Z,102654.38
2019-02-26T12:29:21.033Z,102653.67
2019-02-26T12:31:52.930Z,102645.52
2019-02-26T12:34:23.753Z,102646.58
2019-02-26T12:39:29.165Z,102636.94
2019-02-26T12:41:59.468Z,102626.78
2019-02-26T12:44:31.724Z,102622.83
2019-02-26T12:47:02.062Z,102615.10
2019-02-26T12:49:33.311Z,102620.42
2019-02-26T12:52:03.824Z,102616.87
2019-02-26T12:54:37.013Z,102610.53
2019-02-26T12:57:04.651Z,102604.54
2019-02-26T12:59:38.830Z,102605.65
2019-02-26T13:04:39.081Z,102597.73
2019-02-26T13:07:09.376Z,102594.14
2019-02-26T13:09:46.860Z,102588.41
2019-02-26T13:12:14.150Z,102583.46
2019-02-26T13:14:43.050Z,102582.80
2019-02-26T13:17:13.827Z,102574.83
2019-02-26T13:19:44.126Z,102566.09
2019-02-26T13:22:20.272Z,102568.07
2019-02-26T13:24:48.966Z,102560.56
2019-02-26T13:27:18.543Z,102553.91
2019-02-26T13:29:54.553Z,102558.66
2019-02-26T13:32:21.317Z,102559.31
2019-02-26T13:34:52.484Z,102555.89
2019-02-26T13:37:26.735Z,102554.44
2019-02-26T13:39:55.707Z,102551.67
2019-02-26T13:42:25.810Z,102549.23
2019-02-26T13:44:55.333Z,102552.84
2019-02-26T13:47:25.537Z,102549.75
2019-02-26T13:49:55.770Z,102549.88
2019-02-26T13:52:25.913Z,102541.50
2019-02-26T13:54:55.848Z,102543.61
2019-02-26T13:57:26.535Z,102544.34
2019-02-26T13:59:56.760Z,102534.00
2019-02-26T14:02:27.050Z,102523.75
2019-02-26T14:04:56.562Z,102524.98
2019-02-26T14:07:26.367Z,102520.62
2019-02-26T14:09:55.932Z,102523.75
2019-02-26T14:12:25.936Z,102521.81
2019-02-26T14:14:55.461Z,102518.98
2019-02-26T14:17:25.392Z,102517.20
2019-02-26T14:19:55.406Z,102511.75
2019-02-26T14:22:25.167Z,102520.63
2019-02-26T14:24:55.180Z,102516.12
2019-02-26T14:27:25.261Z,102513.47
2019-02-26T14:29:55.170Z,102508.41
2019-02-26T14:32:24.791Z,102505.22
2019-02-26T14:34:54.653Z,102502.77
2019-02-26T14:37:24.393Z,102499.12
2019-02-26T14:39:53.942Z,102493.24
2019-02-26T14:42:23.815Z,102504.59
2019-02-26T14:44:53.646Z,102501.09
2019-02-26T14:47:24.448Z,102495.80
2019-02-26T14:49:54.033Z,102495.34
2019-02-26T14:52:23.580Z,102497.45
2019-02-26T14:54:55.726Z,102499.31
2019-02-26T14:57:25.544Z,102499.85
2019-02-26T14:59:55.092Z,102497.67
2019-02-26T15:02:24.708Z,102497.72
2019-02-26T15:04:54.249Z,102486.50
2019-02-26T15:07:23.962Z,102487.81
2019-02-26T15:09:53.514Z,102483.13
2019-02-26T15:12:23.089Z,102483.17
2019-02-26T15:14:52.644Z,102474.42
2019-02-26T15:17:23.015Z,102476.52
2019-02-26T15:19:53.288Z,102475.25
2019-02-26T15:22:22.846Z,102468.50
2019-02-26T15:24:52.413Z,102469.50
2019-02-26T15:27:22.586Z,102473.52
2019-02-26T15:29:52.744Z,102476.24
2019-02-26T15:32:22.277Z,102462.30
2019-02-26T15:34:51.842Z,102465.94
2019-02-26T15:37:21.398Z,102459.07
2019-02-26T15:39:51.363Z,102458.06
2019-02-26T15:42:21.115Z,102457.97
2019-02-26T15:44:50.840Z,102456.19
2019-02-26T15:47:23.372Z,102458.11
2019-02-26T15:49:52.922Z,102459.97
2019-02-26T15:52:22.646Z,102461.44
2019-02-26T15:54:52.233Z,102446.36
2019-02-26T15:57:22.122Z,102458.06
2019-02-26T15:59:51.762Z,102452.00
2019-02-26T16:02:22.016Z,102456.52
2019-02-26T16:04:51.879Z,102453.23
2019-02-26T16:07:23.204Z,102447.22
2019-02-26T16:09:52.837Z,102451.67
2019-02-26T16:12:22.580Z,102448.84
2019-02-26T16:14:52.450Z,102446.52
2019-02-26T16:17:22.071Z,102446.20
2019-02-26T16:19:51.629Z,102443.77
2019-02-26T16:22:25.879Z,102446.30
2019-02-26T16:24:56.823Z,102449.31
2019-02-26T16:27:26.359Z,102453.62
2019-02-26T16:29:55.934Z,102453.34
2019-02-26T16:32:25.927Z,102461.42
2019-02-26T16:34:55.457Z,102461.68
2019-02-26T16:37:25.233Z,102461.61
2019-02-26T16:39:56.037Z,102461.73
2019-02-26T16:42:26.691Z,102464.17
2019-02-26T16:44:58.618Z,102463.55
2019-02-26T16:47:28.527Z,102464.50
2019-02-26T16:50:11.721Z,102463.88
2019-02-26T16:52:32.244Z,102466.72
2019-02-26T16:55:01.859Z,102475.38
2019-02-26T16:57:31.404Z,102469.56
2019-02-26T17:00:01.269Z,102478.63
2019-02-26T17:02:30.938Z,102480.25
2019-02-26T17:05:00.812Z,102480.56
2019-02-26T17:07:32.238Z,102475.53
2019-02-26T17:10:09.563Z,102473.66
2019-02-26T17:12:39.124Z,102477.16
2019-02-26T17:15:13.406Z,102471.85
2019-02-26T17:17:42.983Z,102478.78
2019-02-26T17:20:12.518Z,102473.46
2019-02-26T17:22:42.522Z,102472.09
2019-02-26T17:25:12.303Z,102474.95
2019-02-26T17:27:41.871Z,102474.34
2019-02-26T17:30:20.824Z,102474.24
2019-02-26T17:32:52.965Z,102471.44
2019-02-26T17:35:22.495Z,102472.52
2019-02-26T17:37:52.072Z,102473.17
2019-02-26T17:40:23.537Z,102467.84
2019-02-26T17:42:54.328Z,102469.08
2019-02-26T17:45:30.682Z,102464.67
2019-02-26T17:48:00.303Z,102465.62
2019-02-26T17:50:39.073Z,102468.70
2019-02-26T17:53:08.967Z,102467.35
2019-02-26T17:55:38.526Z,102470.87
2019-02-26T17:58:10.569Z,102470.34
2019-02-26T18:00:43.678Z,102479.03
2019-02-26T18:03:14.635Z,102472.49
2019-02-26T18:05:51.421Z,102475.47
2019-02-26T18:08:19.094Z,102483.69
2019-02-26T18:10:49.095Z,102485.23
2019-02-26T18:13:20.635Z,102477.41
2019-02-26T18:15:49.941Z,102477.48
2019-02-26T18:18:19.853Z,102471.95
2019-02-26T18:20:49.383Z,102474.30
2019-02-26T18:23:18.996Z,102468.04
2019-02-26T18:25:48.575Z,102462.75
2019-02-26T18:28:18.225Z,102463.53
2019-02-26T18:30:47.798Z,102468.95
2019-02-26T18:33:18.532Z,102460.58
2019-02-26T18:35:48.075Z,102464.49
2019-02-26T18:38:18.077Z,102471.38
2019-02-26T18:40:47.701Z,102467.61
2019-02-26T18:43:17.308Z,102457.63
2019-02-26T18:45:46.889Z,102452.88
2019-02-26T18:48:16.462Z,102459.56
2019-02-26T18:50:47.924Z,102462.81
2019-02-26T18:53:17.527Z,102460.33
2019-02-26T18:55:47.148Z,102460.15
2019-02-26T18:58:17.058Z,102466.61
2019-02-26T19:00:46.699Z,102468.59
2019-02-26T19:03:16.315Z,102462.60
2019-02-26T19:05:45.865Z,102466.21
2019-02-26T19:08:15.444Z,102464.13
2019-02-26T19:10:44.977Z,102463.03
2019-02-26T19:13:14.810Z,102467.08
2019-02-26T19:15:47.513Z,102474.53
2019-02-26T19:18:16.236Z,102470.28
2019-02-26T19:20:48.932Z,102462.70
2019-02-26T19:23:17.090Z,102464.66
2019-02-26T19:25:46.648Z,102465.69
2019-02-26T19:28:18.211Z,102473.53
2019-02-26T19:30:49.443Z,102473.91
2019-02-26T19:33:21.700Z,102476.20
2019-02-26T19:35:50.268Z,102475.48
2019-02-26T19:38:19.843Z,102477.41
2019-02-26T19:40:54.026Z,102476.73
2019-02-26T19:43:23.740Z,102473.38
2019-02-26T19:45:54.854Z,102473.08
2019-02-26T19:48:24.422Z,102470.13
2019-02-26T19:50:53.994Z,102471.16
2019-02-26T19:53:23.816Z,102466.03
2019-02-26T19:55:53.640Z,102463.89
2019-02-26T19:58:23.534Z,102462.19
2019-02-26T20:00:53.825Z,102462.23
2019-02-26T20:03:23.481Z,102461.45
2019-02-26T20:05:53.040Z,102461.14
2019-02-26T20:08:22.586Z,102459.95
2019-02-26T20:10:54.087Z,102462.12
2019-02-26T20:13:25.642Z,102463.51
2019-02-26T20:15:55.431Z,102460.58
2019-02-26T20:18:26.023Z,102462.36
2019-02-26T20:20:56.201Z,102461.05
2019-02-26T20:23:25.768Z,102459.83
2019-02-26T20:25:55.362Z,102457.36
2019-02-26T20:28:24.897Z,102459.12
2019-02-26T20:30:54.505Z,102460.50
2019-02-26T20:33:24.050Z,102456.59
2019-02-26T20:35:53.622Z,102453.05
2019-02-26T20:38:24.185Z,102452.71
2019-02-26T20:40:54.890Z,102451.55
2019-02-26T20:43:26.163Z,102450.34
2019-02-26T20:45:56.948Z,102447.45
2019-02-26T20:48:26.481Z,102444.06
2019-02-26T20:50:56.571Z,102445.43
2019-02-26T20:53:30.703Z,102441.20
2019-02-26T20:55:58.239Z,102444.67
2019-02-26T20:58:27.822Z,102442.53
2019-02-26T21:00:58.894Z,102436.45
2019-02-26T21:03:28.919Z,102442.97
2019-02-26T21:05:58.511Z,102438.27
2019-02-26T21:08:30.681Z,102441.83
2019-02-26T21:11:00.913Z,102447.09
2019-02-26T21:13:34.645Z,102440.16
2019-02-26T21:16:02.060Z,102432.86
2019-02-26T21:18:34.764Z,102432.53
2019-02-26T21:21:04.376Z,102434.28
2019-02-26T21:23:38.496Z,102432.11
2019-02-26T21:26:09.219Z,102433.87
2019-02-26T21:28:39.208Z,102433.03
2019-02-26T21:31:09.884Z,102433.92
2019-02-26T21:33:39.397Z,102434.83
2019-02-26T21:36:08.993Z,102435.26
2019-02-26T21:38:39.223Z,102433.16
2019-02-26T21:41:08.743Z,102434.92
2019-02-26T21:43:38.319Z,102434.94
2019-02-26T21:46:07.902Z,102434.09
2019-02-26T21:48:43.642Z,102428.94
2019-02-26T21:51:10.396Z,102425.08
2019-02-26T21:53:40.391Z,102426.37
2019-02-26T21:56:11.299Z,102426.40
2019-02-26T21:58:42.955Z,102419.48
2019-02-26T22:01:13.883Z,102419.98
2019-02-26T22:03:43.444Z,102429.10
2019-02-26T22:06:12.999Z,102419.59
2019-02-26T22:08:42.558Z,102425.27
2019-02-26T22:11:12.124Z,102420.52
2019-02-26T22:13:41.663Z,102424.04
2019-02-26T22:16:11.584Z,102420.18
2019-02-26T22:18:41.132Z,102421.92
2019-02-26T22:21:10.680Z,102421.06
2019-02-26T22:23:40.211Z,102415.41
2019-02-26T22:26:09.782Z,102414.11
2019-02-26T22:28:42.655Z,102408.08
2019-02-26T22:31:12.698Z,102412.46
2019-02-26T22:33:46.183Z,102408.59
2019-02-26T22:36:14.732Z,102401.70
2019-02-26T22:38:46.158Z,102409.94
2019-02-26T22:41:18.815Z,102408.64
2019-02-26T22:43:48.525Z,102409.10
2019-02-26T22:46:18.068Z,102409.11
2019-02-26T22:48:48.838Z,102407.83
2019-02-26T22:51:18.743Z,102406.52
2019-02-26T22:53:48.338Z,102406.54
2019-02-26T22:56:21.956Z,102407.39
2019-02-26T22:58:52.458Z,102406.53
2019-02-26T23:01:36.218Z,102409.98
2019-02-26T23:04:03.563Z,102406.54
2019-02-26T23:06:33.126Z,102410.44
2019-02-26T23:09:03.616Z,102400.91
2019-02-26T23:11:33.484Z,102398.75
2019-02-26T23:14:04.914Z,102397.88
2019-02-26T23:16:35.687Z,102406.13
2019-02-26T23:19:05.794Z,102401.79
2019-02-26T23:21:35.638Z,102404.82
2019-02-26T23:24:05.399Z,102406.55
2019-02-26T23:26:35.095Z,102401.78
2019-02-26T23:29:04.712Z,102398.36
2019-02-26T23:31:34.335Z,102392.73
2019-02-26T23:34:05.745Z,102388.83
2019-02-26T23:36:35.327Z,102394.88
2019-02-26T23:39:07.116Z,102393.58
2019-02-26T23:41:36.865Z,102396.20
2019-02-26T23:44:06.459Z,102395.30
2019-02-26T23:46:36.051Z,102387.95
2019-02-26T23:49:05.664Z,102388.41
2019-02-26T23:51:35.198Z,102391.00
2019-02-26T23:54:07.315Z,102389.25
2019-02-26T23:56:36.138Z,102381.91
2019-02-26T23:59:05.683Z,102391.41
